sensor_id;sensor_type;location;lat;lon;timestamp;pressure;altitude;pressure_sealevel;temperature;humidity
6435;BME280;3250;42.694;23.278;2022-11-20T00:01:40;94056.81;;;19.00;61.42
6435;BME280;3250;42.694;23.278;2022-11-20T00:04:05;94063.78;;;18.96;61.15
6435;BME280;3250;42.694;23.278;2022-11-20T00:06:31;94078.38;;;19.03;61.65
6435;BME280;3250;42.694;23.278;2022-11-20T00:08:58;94077.34;;;18.99;62.15
6435;BME280;3250;42.694;23.278;2022-11-20T00:11:26;94082.41;;;19.01;62.46
6435;BME280;3250;42.694;23.278;2022-11-20T00:13:54;94086.97;;;18.95;62.13
6435;BME280;3250;42.694;23.278;2022-11-20T00:16:22;94081.34;;;19.02;61.13
6435;BME280;3250;42.694;23.278;2022-11-20T00:18:48;94067.69;;;19.03;60.67
6435;BME280;3250;42.694;23.278;2022-11-20T00:21:22;94036.09;;;19.15;59.58
6435;BME280;3250;42.694;23.278;2022-11-20T00:23:48;94062.69;;;19.26;60.18
6435;BME280;3250;42.694;23.278;2022-11-20T00:26:16;94044.91;;;19.16;59.75
6435;BME280;3250;42.694;23.278;2022-11-20T00:28:43;94080.28;;;19.27;59.38
6435;BME280;3250;42.694;23.278;2022-11-20T00:31:14;94064.94;;;19.13;60.21
6435;BME280;3250;42.694;23.278;2022-11-20T00:33:40;94056.09;;;19.18;60.11
6435;BME280;3250;42.694;23.278;2022-11-20T00:36:11;94075.22;;;19.25;59.78
6435;BME280;3250;42.694;23.278;2022-11-20T00:38:37;94050.78;;;19.13;60.85
6435;BME280;3250;42.694;23.278;2022-11-20T00:41:05;94032.88;;;19.18;61.33
6435;BME280;3250;42.694;23.278;2022-11-20T00:43:31;94063.97;;;19.04;61.07
6435;BME280;3250;42.694;23.278;2022-11-20T00:46:08;94063.13;;;19.09;60.18
6435;BME280;3250;42.694;23.278;2022-11-20T00:48:34;94090.63;;;19.04;60.39
6435;BME280;3250;42.694;23.278;2022-11-20T00:51:00;94065.50;;;19.10;61.17
6435;BME280;3250;42.694;23.278;2022-11-20T00:53:25;94081.53;;;19.10;61.19
6435;BME280;3250;42.694;23.278;2022-11-20T00:55:56;94090.88;;;19.08;61.00
6435;BME280;3250;42.694;23.278;2022-11-20T00:58:22;94069.28;;;19.04;61.14
6435;BME280;3250;42.694;23.278;2022-11-20T01:00:48;94039.50;;;18.97;61.80
6435;BME280;3250;42.694;23.278;2022-11-20T01:03:15;94057.09;;;18.98;61.75
6435;BME280;3250;42.694;23.278;2022-11-20T01:05:40;94060.28;;;19.00;62.48
6435;BME280;3250;42.694;23.278;2022-11-20T01:08:06;94024.28;;;18.98;62.45
6435;BME280;3250;42.694;23.278;2022-11-20T01:10:31;94079.38;;;18.83;62.63
6435;BME280;3250;42.694;23.278;2022-11-20T01:12:57;94040.09;;;18.89;61.65
6435;BME280;3250;42.694;23.278;2022-11-20T01:15:40;94052.94;;;18.87;62.97
6435;BME280;3250;42.694;23.278;2022-11-20T01:18:06;94046.25;;;18.90;62.77
6435;BME280;3250;42.694;23.278;2022-11-20T01:20:35;94026.88;;;18.79;63.48
6435;BME280;3250;42.694;23.278;2022-11-20T01:23:02;94066.13;;;18.73;62.83
6435;BME280;3250;42.694;23.278;2022-11-20T01:25:28;93994.88;;;18.79;61.37
6435;BME280;3250;42.694;23.278;2022-11-20T01:27:53;94032.53;;;19.01;60.81
6435;BME280;3250;42.694;23.278;2022-11-20T01:30:18;94033.63;;;18.95;60.98
6435;BME280;3250;42.694;23.278;2022-11-20T01:32:44;94041.44;;;18.92;61.13
6435;BME280;3250;42.694;23.278;2022-11-20T01:35:09;94036.31;;;18.95;61.33
6435;BME280;3250;42.694;23.278;2022-11-20T01:37:35;94024.09;;;18.89;61.32
6435;BME280;3250;42.694;23.278;2022-11-20T01:40:01;94027.31;;;18.86;61.28
6435;BME280;3250;42.694;23.278;2022-11-20T01:42:27;94031.41;;;18.78;61.00
6435;BME280;3250;42.694;23.278;2022-11-20T01:45:50;94034.94;;;18.74;61.29
6435;BME280;3250;42.694;23.278;2022-11-20T01:48:19;94037.19;;;18.85;61.35
6435;BME280;3250;42.694;23.278;2022-11-20T01:50:46;94045.44;;;18.89;61.16
6435;BME280;3250;42.694;23.278;2022-11-20T01:53:15;94056.91;;;18.90;61.10
6435;BME280;3250;42.694;23.278;2022-11-20T01:55:48;94048.13;;;18.89;61.82
6435;BME280;3250;42.694;23.278;2022-11-20T01:58:16;94046.91;;;18.76;62.17
6435;BME280;3250;42.694;23.278;2022-11-20T02:00:42;94070.41;;;18.69;62.06
6435;BME280;3250;42.694;23.278;2022-11-20T02:03:12;94049.34;;;18.73;62.83
6435;BME280;3250;42.694;23.278;2022-11-20T02:05:45;94055.81;;;18.67;62.68
6435;BME280;3250;42.694;23.278;2022-11-20T02:08:13;94039.69;;;18.77;62.34
6435;BME280;3250;42.694;23.278;2022-11-20T02:10:39;94058.50;;;18.62;62.28
6435;BME280;3250;42.694;23.278;2022-11-20T02:13:05;94037.22;;;18.52;63.29
6435;BME280;3250;42.694;23.278;2022-11-20T02:15:49;94042.56;;;18.52;62.96
6435;BME280;3250;42.694;23.278;2022-11-20T02:18:17;94065.81;;;18.46;63.57
6435;BME280;3250;42.694;23.278;2022-11-20T02:20:45;94044.72;;;18.50;62.96
6435;BME280;3250;42.694;23.278;2022-11-20T02:25:45;94059.06;;;18.59;62.10
6435;BME280;3250;42.694;23.278;2022-11-20T02:28:12;94060.16;;;18.58;62.87
6435;BME280;3250;42.694;23.278;2022-11-20T02:30:38;94048.13;;;18.55;63.46
6435;BME280;3250;42.694;23.278;2022-11-20T02:33:03;94063.88;;;18.57;63.43
6435;BME280;3250;42.694;23.278;2022-11-20T02:37:56;94061.00;;;18.43;63.78
6435;BME280;3250;42.694;23.278;2022-11-20T02:40:22;94051.25;;;18.33;63.70
6435;BME280;3250;42.694;23.278;2022-11-20T02:42:47;94061.78;;;18.48;63.22
6435;BME280;3250;42.694;23.278;2022-11-20T02:45:13;94066.00;;;18.55;63.40
6435;BME280;3250;42.694;23.278;2022-11-20T02:47:38;94051.75;;;18.35;64.15
6435;BME280;3250;42.694;23.278;2022-11-20T02:50:04;94064.53;;;18.38;64.82
6435;BME280;3250;42.694;23.278;2022-11-20T02:52:30;94068.53;;;18.36;65.04
6435;BME280;3250;42.694;23.278;2022-11-20T02:54:55;94042.81;;;18.21;65.50
6435;BME280;3250;42.694;23.278;2022-11-20T02:57:21;94074.72;;;18.26;66.04
6435;BME280;3250;42.694;23.278;2022-11-20T02:59:46;94083.31;;;18.18;66.48
6435;BME280;3250;42.694;23.278;2022-11-20T03:02:12;94083.31;;;18.18;66.88
6435;BME280;3250;42.694;23.278;2022-11-20T03:04:37;94096.97;;;18.12;67.33
6435;BME280;3250;42.694;23.278;2022-11-20T03:07:03;94092.97;;;18.09;68.02
6435;BME280;3250;42.694;23.278;2022-11-20T03:09:29;94090.56;;;18.07;68.09
6435;BME280;3250;42.694;23.278;2022-11-20T03:11:54;94104.69;;;18.08;68.46
6435;BME280;3250;42.694;23.278;2022-11-20T03:14:20;94094.88;;;18.03;67.84
6435;BME280;3250;42.694;23.278;2022-11-20T03:16:45;94093.22;;;18.07;68.24
6435;BME280;3250;42.694;23.278;2022-11-20T03:19:12;94094.34;;;18.06;67.91
6435;BME280;3250;42.694;23.278;2022-11-20T03:21:38;94102.03;;;18.08;68.19
6435;BME280;3250;42.694;23.278;2022-11-20T03:24:04;94070.63;;;18.05;68.20
6435;BME280;3250;42.694;23.278;2022-11-20T03:26:29;94084.47;;;18.07;68.17
6435;BME280;3250;42.694;23.278;2022-11-20T03:28:57;94085.53;;;18.06;68.11
6435;BME280;3250;42.694;23.278;2022-11-20T03:31:26;94108.00;;;17.90;67.96
6435;BME280;3250;42.694;23.278;2022-11-20T03:33:52;94105.88;;;17.87;68.38
6435;BME280;3250;42.694;23.278;2022-11-20T03:36:19;94104.81;;;17.88;68.55
6435;BME280;3250;42.694;23.278;2022-11-20T03:38:44;94108.00;;;17.90;68.46
6435;BME280;3250;42.694;23.278;2022-11-20T03:41:13;94118.09;;;17.93;68.35
6435;BME280;3250;42.694;23.278;2022-11-20T03:43:38;94121.59;;;17.88;68.64
6435;BME280;3250;42.694;23.278;2022-11-20T03:46:05;94135.41;;;17.90;68.35
6435;BME280;3250;42.694;23.278;2022-11-20T03:48:31;94121.31;;;17.90;68.30
6435;BME280;3250;42.694;23.278;2022-11-20T03:51:17;94124.50;;;17.92;68.20
6435;BME280;3250;42.694;23.278;2022-11-20T03:53:45;94121.81;;;17.97;68.14
6435;BME280;3250;42.694;23.278;2022-11-20T03:56:13;94125.50;;;18.06;66.40
6435;BME280;3250;42.694;23.278;2022-11-20T03:58:40;94109.63;;;17.86;66.78
6435;BME280;3250;42.694;23.278;2022-11-20T04:01:18;94111.22;;;17.82;66.45
6435;BME280;3250;42.694;23.278;2022-11-20T04:03:44;94130.38;;;17.89;66.65
6435;BME280;3250;42.694;23.278;2022-11-20T04:08:37;94141.03;;;17.84;67.60
6435;BME280;3250;42.694;23.278;2022-11-20T04:13:39;94126.13;;;17.83;67.96
6435;BME280;3250;42.694;23.278;2022-11-20T04:16:06;94127.19;;;17.82;67.74
6435;BME280;3250;42.694;23.278;2022-11-20T04:18:32;94085.72;;;17.70;67.94
6435;BME280;3250;42.694;23.278;2022-11-20T04:20:58;94092.09;;;17.75;66.96
6435;BME280;3250;42.694;23.278;2022-11-20T04:23:24;94102.97;;;17.83;66.71
6435;BME280;3250;42.694;23.278;2022-11-20T04:25:50;94111.47;;;17.85;67.17
6435;BME280;3250;42.694;23.278;2022-11-20T04:28:16;94112.78;;;17.93;66.71
6435;BME280;3250;42.694;23.278;2022-11-20T04:30:41;94130.91;;;17.86;66.69
6435;BME280;3250;42.694;23.278;2022-11-20T04:33:07;94139.44;;;17.83;66.47
6435;BME280;3250;42.694;23.278;2022-11-20T04:35:36;94107.34;;;17.64;67.18
6435;BME280;3250;42.694;23.278;2022-11-20T04:38:02;94120.81;;;17.88;66.80
6435;BME280;3250;42.694;23.278;2022-11-20T04:40:27;94140.50;;;17.87;67.35
6435;BME280;3250;42.694;23.278;2022-11-20T04:42:54;94118.91;;;17.93;67.09
6435;BME280;3250;42.694;23.278;2022-11-20T04:45:19;94121.88;;;17.82;67.05
6435;BME280;3250;42.694;23.278;2022-11-20T04:47:45;94130.16;;;17.80;66.94
6435;BME280;3250;42.694;23.278;2022-11-20T04:50:10;94099.00;;;17.81;66.63
6435;BME280;3250;42.694;23.278;2022-11-20T04:52:36;94117.88;;;17.89;66.70
6435;BME280;3250;42.694;23.278;2022-11-20T04:55:02;94118.13;;;17.88;67.43
6435;BME280;3250;42.694;23.278;2022-11-20T04:57:27;94094.97;;;17.83;67.42
6435;BME280;3250;42.694;23.278;2022-11-20T04:59:53;94088.34;;;17.76;67.82
6435;BME280;3250;42.694;23.278;2022-11-20T05:02:18;94083.56;;;17.78;67.41
6435;BME280;3250;42.694;23.278;2022-11-20T05:04:43;94101.09;;;17.84;67.44
6435;BME280;3250;42.694;23.278;2022-11-20T05:07:09;94073.22;;;17.71;67.57
6435;BME280;3250;42.694;23.278;2022-11-20T05:09:34;94077.66;;;17.86;66.46
6435;BME280;3250;42.694;23.278;2022-11-20T05:12:00;94074.72;;;17.87;66.07
6435;BME280;3250;42.694;23.278;2022-11-20T05:14:25;94075.00;;;17.86;66.61
6435;BME280;3250;42.694;23.278;2022-11-20T05:16:50;94052.44;;;17.73;65.46
6435;BME280;3250;42.694;23.278;2022-11-20T05:19:16;94071.78;;;17.89;66.14
6435;BME280;3250;42.694;23.278;2022-11-20T05:21:41;94042.84;;;17.77;65.73
6435;BME280;3250;42.694;23.278;2022-11-20T05:24:07;94090.66;;;17.97;65.88
6435;BME280;3250;42.694;23.278;2022-11-20T05:26:32;94097.81;;;18.02;65.13
6435;BME280;3250;42.694;23.278;2022-11-20T05:28:58;94072.03;;;17.92;65.30
6435;BME280;3250;42.694;23.278;2022-11-20T05:31:24;94077.13;;;17.89;65.68
6435;BME280;3250;42.694;23.278;2022-11-20T05:33:50;94085.81;;;17.99;64.81
6435;BME280;3250;42.694;23.278;2022-11-20T05:36:16;94107.44;;;17.93;65.03
6435;BME280;3250;42.694;23.278;2022-11-20T05:38:42;94096.25;;;17.91;65.32
6435;BME280;3250;42.694;23.278;2022-11-20T05:41:10;94099.50;;;17.88;65.69
6435;BME280;3250;42.694;23.278;2022-11-20T05:43:38;94086.72;;;17.85;66.23
6435;BME280;3250;42.694;23.278;2022-11-20T05:46:05;94108.56;;;17.82;65.98
6435;BME280;3250;42.694;23.278;2022-11-20T05:48:32;94100.25;;;17.93;66.02
6435;BME280;3250;42.694;23.278;2022-11-20T05:50:58;94112.28;;;17.86;65.86
6435;BME280;3250;42.694;23.278;2022-11-20T05:53:24;94114.72;;;17.77;66.14
6435;BME280;3250;42.694;23.278;2022-11-20T05:56:00;94115.56;;;17.73;66.75
6435;BME280;3250;42.694;23.278;2022-11-20T05:58:26;94119.78;;;17.79;66.88
6435;BME280;3250;42.694;23.278;2022-11-20T06:00:52;94120.06;;;17.72;67.35
6435;BME280;3250;42.694;23.278;2022-11-20T06:03:17;94111.56;;;17.70;66.29
6435;BME280;3250;42.694;23.278;2022-11-20T06:05:42;94140.28;;;17.73;67.43
6435;BME280;3250;42.694;23.278;2022-11-20T06:08:08;94140.00;;;17.80;67.35
6435;BME280;3250;42.694;23.278;2022-11-20T06:10:33;94138.88;;;17.91;67.86
6435;BME280;3250;42.694;23.278;2022-11-20T06:12:59;94127.69;;;17.94;67.60
6435;BME280;3250;42.694;23.278;2022-11-20T06:15:24;94122.66;;;17.82;68.72
6435;BME280;3250;42.694;23.278;2022-11-20T06:17:54;94132.81;;;17.80;69.08
6435;BME280;3250;42.694;23.278;2022-11-20T06:20:21;94132.06;;;17.69;69.31
6435;BME280;3250;42.694;23.278;2022-11-20T06:22:46;94133.09;;;17.73;69.67
6435;BME280;3250;42.694;23.278;2022-11-20T06:25:11;94128.03;;;17.77;69.53
6435;BME280;3250;42.694;23.278;2022-11-20T06:27:37;94133.06;;;17.84;69.47
6435;BME280;3250;42.694;23.278;2022-11-20T06:30:03;94140.00;;;17.80;69.53
6435;BME280;3250;42.694;23.278;2022-11-20T06:32:29;94125.91;;;17.79;69.42
6435;BME280;3250;42.694;23.278;2022-11-20T06:34:54;94118.44;;;17.81;68.83
6435;BME280;3250;42.694;23.278;2022-11-20T06:37:19;94126.38;;;17.86;68.07
6435;BME280;3250;42.694;23.278;2022-11-20T06:39:45;94140.19;;;17.93;69.69
6435;BME280;3250;42.694;23.278;2022-11-20T06:42:10;94115.44;;;17.93;70.01
6435;BME280;3250;42.694;23.278;2022-11-20T06:44:36;94151.13;;;18.80;66.78
6435;BME280;3250;42.694;23.278;2022-11-20T06:47:01;94159.28;;;19.28;66.75
6435;BME280;3250;42.694;23.278;2022-11-20T06:49:26;94148.97;;;20.35;63.04
6435;BME280;3250;42.694;23.278;2022-11-20T06:51:52;94157.25;;;20.90;59.44
6435;BME280;3250;42.694;23.278;2022-11-20T06:54:17;94159.94;;;21.22;58.14
6435;BME280;3250;42.694;23.278;2022-11-20T06:56:46;94129.47;;;20.86;58.45
6435;BME280;3250;42.694;23.278;2022-11-20T06:59:13;94156.25;;;20.67;59.21
6435;BME280;3250;42.694;23.278;2022-11-20T07:01:39;94163.00;;;20.46;60.59
6435;BME280;3250;42.694;23.278;2022-11-20T07:04:04;94180.03;;;20.87;60.20
6435;BME280;3250;42.694;23.278;2022-11-20T07:06:30;94158.75;;;20.96;59.30
6435;BME280;3250;42.694;23.278;2022-11-20T07:08:56;94137.69;;;20.76;59.44
6435;BME280;3250;42.694;23.278;2022-11-20T07:11:22;94165.91;;;21.00;60.13
6435;BME280;3250;42.694;23.278;2022-11-20T07:13:48;94178.47;;;21.65;57.29
6435;BME280;3250;42.694;23.278;2022-11-20T07:16:15;94170.88;;;21.99;55.70
6435;BME280;3250;42.694;23.278;2022-11-20T07:18:40;94175.00;;;21.64;55.31
6435;BME280;3250;42.694;23.278;2022-11-20T07:21:07;94183.06;;;20.81;57.96
6435;BME280;3250;42.694;23.278;2022-11-20T07:23:34;94155.66;;;20.14;59.00
6435;BME280;3250;42.694;23.278;2022-11-20T07:26:09;94164.03;;;19.59;60.79
6435;BME280;3250;42.694;23.278;2022-11-20T07:28:36;94161.94;;;19.28;62.68
6435;BME280;3250;42.694;23.278;2022-11-20T07:31:02;94174.59;;;19.12;62.89
6435;BME280;3250;42.694;23.278;2022-11-20T07:33:27;94176.06;;;18.99;64.09
6435;BME280;3250;42.694;23.278;2022-11-20T07:35:53;94167.34;;;18.89;64.40
6435;BME280;3250;42.694;23.278;2022-11-20T07:38:18;94166.34;;;18.79;64.82
6435;BME280;3250;42.694;23.278;2022-11-20T07:40:44;94173.59;;;18.74;65.77
6435;BME280;3250;42.694;23.278;2022-11-20T07:43:09;94177.59;;;18.76;65.58
6435;BME280;3250;42.694;23.278;2022-11-20T07:45:34;94157.94;;;18.62;64.45
6435;BME280;3250;42.694;23.278;2022-11-20T07:48:00;94161.66;;;18.61;64.48
6435;BME280;3250;42.694;23.278;2022-11-20T07:50:25;94158.28;;;18.51;63.16
6435;BME280;3250;42.694;23.278;2022-11-20T07:52:51;94164.41;;;18.46;64.15
6435;BME280;3250;42.694;23.278;2022-11-20T07:55:17;94159.63;;;18.48;64.55
6435;BME280;3250;42.694;23.278;2022-11-20T07:57:43;94160.94;;;18.45;65.37
6435;BME280;3250;42.694;23.278;2022-11-20T08:00:10;94172.94;;;18.48;65.76
6435;BME280;3250;42.694;23.278;2022-11-20T08:02:40;94183.88;;;18.46;65.66
6435;BME280;3250;42.694;23.278;2022-11-20T08:05:06;94187.88;;;18.49;65.16
6435;BME280;3250;42.694;23.278;2022-11-20T08:07:42;94176.41;;;18.43;65.77
6435;BME280;3250;42.694;23.278;2022-11-20T08:10:10;94185.22;;;18.44;65.21
6435;BME280;3250;42.694;23.278;2022-11-20T08:12:36;94172.66;;;18.50;65.81
6435;BME280;3250;42.694;23.278;2022-11-20T08:15:26;94198.75;;;18.53;66.18
6435;BME280;3250;42.694;23.278;2022-11-20T08:17:58;94184.06;;;18.65;66.22
6435;BME280;3250;42.694;23.278;2022-11-20T08:20:23;94191.00;;;18.66;64.86
6435;BME280;3250;42.694;23.278;2022-11-20T08:22:49;94161.53;;;18.81;65.97
6435;BME280;3250;42.694;23.278;2022-11-20T08:25:14;94153.28;;;18.78;64.94
6435;BME280;3250;42.694;23.278;2022-11-20T08:27:39;94183.25;;;18.99;65.11
6435;BME280;3250;42.694;23.278;2022-11-20T08:30:05;94190.41;;;19.08;65.42
6435;BME280;3250;42.694;23.278;2022-11-20T08:32:32;94177.38;;;19.02;62.78
6435;BME280;3250;42.694;23.278;2022-11-20T08:35:00;94175.53;;;18.97;65.22
6435;BME280;3250;42.694;23.278;2022-11-20T08:37:25;94186.72;;;18.99;64.37
6435;BME280;3250;42.694;23.278;2022-11-20T08:39:50;94197.53;;;18.79;64.04
6435;BME280;3250;42.694;23.278;2022-11-20T08:42:17;94204.25;;;18.76;64.98
6435;BME280;3250;42.694;23.278;2022-11-20T08:44:43;94216.22;;;18.79;66.29
6435;BME280;3250;42.694;23.278;2022-11-20T08:47:08;94235.50;;;18.66;69.61
6435;BME280;3250;42.694;23.278;2022-11-20T08:49:33;94214.09;;;18.27;74.11
6435;BME280;3250;42.694;23.278;2022-11-20T08:51:59;94205.50;;;17.76;76.63
6435;BME280;3250;42.694;23.278;2022-11-20T08:54:24;94211.13;;;17.49;79.34
6435;BME280;3250;42.694;23.278;2022-11-20T08:56:50;94200.53;;;17.28;81.37
6435;BME280;3250;42.694;23.278;2022-11-20T08:59:15;94191.53;;;16.94;83.00
6435;BME280;3250;42.694;23.278;2022-11-20T09:01:41;94185.16;;;16.95;84.44
6435;BME280;3250;42.694;23.278;2022-11-20T09:04:06;94191.50;;;16.99;83.90
6435;BME280;3250;42.694;23.278;2022-11-20T09:06:31;94208.25;;;17.15;84.47
6435;BME280;3250;42.694;23.278;2022-11-20T09:08:57;94203.47;;;17.12;84.49
6435;BME280;3250;42.694;23.278;2022-11-20T09:11:23;94205.31;;;17.06;85.82
6435;BME280;3250;42.694;23.278;2022-11-20T09:13:48;94214.13;;;16.86;86.45
6435;BME280;3250;42.694;23.278;2022-11-20T09:16:14;94213.56;;;16.74;87.65
6435;BME280;3250;42.694;23.278;2022-11-20T09:18:39;94208.78;;;16.71;87.19
6435;BME280;3250;42.694;23.278;2022-11-20T09:21:10;94216.22;;;16.64;87.68
6435;BME280;3250;42.694;23.278;2022-11-20T09:23:36;94212.50;;;16.65;88.76
6435;BME280;3250;42.694;23.278;2022-11-20T09:26:10;94213.53;;;16.59;88.52
6435;BME280;3250;42.694;23.278;2022-11-20T09:28:36;94204.44;;;16.45;87.20
6435;BME280;3250;42.694;23.278;2022-11-20T09:31:06;94202.59;;;16.45;86.62
6435;BME280;3250;42.694;23.278;2022-11-20T09:33:32;94195.94;;;16.38;87.68
6435;BME280;3250;42.694;23.278;2022-11-20T09:35:57;94177.09;;;16.34;87.49
6435;BME280;3250;42.694;23.278;2022-11-20T09:38:23;94177.63;;;16.41;88.40
6435;BME280;3250;42.694;23.278;2022-11-20T09:41:03;94164.38;;;16.51;89.49
6435;BME280;3250;42.694;23.278;2022-11-20T09:46:29;94154.81;;;16.91;88.42
6435;BME280;3250;42.694;23.278;2022-11-20T09:49:26;94142.03;;;17.08;89.00
6435;BME280;3250;42.694;23.278;2022-11-20T09:52:00;94165.66;;;17.35;88.35
6435;BME280;3250;42.694;23.278;2022-11-20T09:54:33;94150.44;;;17.51;87.47
6435;BME280;3250;42.694;23.278;2022-11-20T09:57:05;94149.09;;;17.68;86.46
6435;BME280;3250;42.694;23.278;2022-11-20T09:59:47;94154.13;;;17.75;84.56
6435;BME280;3250;42.694;23.278;2022-11-20T10:05:27;94147.09;;;18.43;78.78
6435;BME280;3250;42.694;23.278;2022-11-20T10:10:40;94149.34;;;18.70;82.02
6435;BME280;3250;42.694;23.278;2022-11-20T10:13:15;94138.25;;;18.58;80.87
6435;BME280;3250;42.694;23.278;2022-11-20T10:21:12;94152.41;;;18.88;80.91
6435;BME280;3250;42.694;23.278;2022-11-20T10:24:16;94161.97;;;18.94;79.61
6435;BME280;3250;42.694;23.278;2022-11-20T10:29:41;94179.47;;;18.71;77.34
6435;BME280;3250;42.694;23.278;2022-11-20T10:32:13;94176.84;;;18.66;78.21
6435;BME280;3250;42.694;23.278;2022-11-20T10:34:59;94172.59;;;18.60;79.32
6435;BME280;3250;42.694;23.278;2022-11-20T10:37:27;94173.69;;;18.54;80.46
6435;BME280;3250;42.694;23.278;2022-11-20T10:42:43;94173.59;;;18.30;79.49
6435;BME280;3250;42.694;23.278;2022-11-20T10:47:45;94158.81;;;18.03;81.81
6435;BME280;3250;42.694;23.278;2022-11-20T10:50:15;94144.72;;;17.93;82.87
6435;BME280;3250;42.694;23.278;2022-11-20T10:52:48;94157.53;;;17.86;82.79
6435;BME280;3250;42.694;23.278;2022-11-20T10:55:40;94166.13;;;17.67;83.42
6435;BME280;3250;42.694;23.278;2022-11-20T10:58:14;94172.25;;;17.58;84.40
6435;BME280;3250;42.694;23.278;2022-11-20T11:00:41;94173.66;;;17.35;84.32
6435;BME280;3250;42.694;23.278;2022-11-20T11:03:28;94199.75;;;17.18;81.20
6435;BME280;3250;42.694;23.278;2022-11-20T11:06:06;94242.41;;;16.30;83.35
6435;BME280;3250;42.694;23.278;2022-11-20T11:08:37;94263.69;;;15.41;86.95
6435;BME280;3250;42.694;23.278;2022-11-20T11:11:24;94230.69;;;14.58;85.39
6435;BME280;3250;42.694;23.278;2022-11-20T11:13:51;94194.69;;;14.08;87.97
6435;BME280;3250;42.694;23.278;2022-11-20T11:16:25;94205.25;;;14.08;87.75
6435;BME280;3250;42.694;23.278;2022-11-20T11:19:06;94171.00;;;13.96;88.18
6435;BME280;3250;42.694;23.278;2022-11-20T11:21:32;94195.03;;;14.17;87.77
6435;BME280;3250;42.694;23.278;2022-11-20T11:24:02;94194.97;;;14.12;87.54
6435;BME280;3250;42.694;23.278;2022-11-20T11:26:29;94184.78;;;13.98;88.89
6435;BME280;3250;42.694;23.278;2022-11-20T11:28:58;94162.69;;;13.88;89.95
6435;BME280;3250;42.694;23.278;2022-11-20T11:31:29;94152.56;;;13.80;89.43
6435;BME280;3250;42.694;23.278;2022-11-20T11:34:12;94156.13;;;13.69;90.66
6435;BME280;3250;42.694;23.278;2022-11-20T11:36:39;94153.28;;;13.75;91.11
6435;BME280;3250;42.694;23.278;2022-11-20T11:39:10;94151.75;;;13.79;91.87
6435;BME280;3250;42.694;23.278;2022-11-20T11:41:36;94144.22;;;13.66;92.21
6435;BME280;3250;42.694;23.278;2022-11-20T11:44:31;94172.88;;;14.01;89.74
6435;BME280;3250;42.694;23.278;2022-11-20T11:47:23;94165.41;;;14.20;88.44
6435;BME280;3250;42.694;23.278;2022-11-20T11:50:22;94155.81;;;14.14;86.61
6435;BME280;3250;42.694;23.278;2022-11-20T11:55:28;94162.50;;;14.43;86.24
6435;BME280;3250;42.694;23.278;2022-11-20T12:00:53;94172.06;;;14.49;85.47
6435;BME280;3250;42.694;23.278;2022-11-20T12:03:35;94166.56;;;14.56;85.82
6435;BME280;3250;42.694;23.278;2022-11-20T12:06:05;94169.84;;;14.68;82.90
6435;BME280;3250;42.694;23.278;2022-11-20T12:11:13;94154.88;;;14.89;82.95
6435;BME280;3250;42.694;23.278;2022-11-20T12:13:53;94163.63;;;14.84;79.97
6435;BME280;3250;42.694;23.278;2022-11-20T12:16:20;94167.72;;;15.02;79.54
6435;BME280;3250;42.694;23.278;2022-11-20T12:18:50;94163.50;;;15.06;81.85
6435;BME280;3250;42.694;23.278;2022-11-20T12:21:20;94163.00;;;15.09;81.87
6435;BME280;3250;42.694;23.278;2022-11-20T12:24:24;94164.88;;;15.14;82.45
6435;BME280;3250;42.694;23.278;2022-11-20T12:27:11;94155.53;;;15.06;83.78
6435;BME280;3250;42.694;23.278;2022-11-20T12:40:34;94115.88;;;14.79;81.96
6435;BME280;3250;42.694;23.278;2022-11-20T12:43:21;94094.16;;;14.77;82.90
6435;BME280;3250;42.694;23.278;2022-11-20T12:46:24;94114.41;;;14.98;84.05
6435;BME280;3250;42.694;23.278;2022-11-20T12:54:46;94116.09;;;15.15;85.99
6435;BME280;3250;42.694;23.278;2022-11-20T12:57:33;94111.34;;;15.17;85.88
6435;BME280;3250;42.694;23.278;2022-11-20T13:00:17;94116.63;;;15.17;84.77
6435;BME280;3250;42.694;23.278;2022-11-20T13:08:23;94080.25;;;15.02;86.08
6435;BME280;3250;42.694;23.278;2022-11-20T13:13:35;94119.03;;;15.13;86.94
6435;BME280;3250;42.694;23.278;2022-11-20T13:16:30;94141.22;;;15.07;86.25
6435;BME280;3250;42.694;23.278;2022-11-20T13:19:01;94147.00;;;14.99;86.05
6435;BME280;3250;42.694;23.278;2022-11-20T13:21:41;94139.38;;;15.02;85.81
6435;BME280;3250;42.694;23.278;2022-11-20T13:26:45;94115.94;;;14.89;84.54
6435;BME280;3250;42.694;23.278;2022-11-20T13:29:21;94139.91;;;15.04;84.51
6435;BME280;3250;42.694;23.278;2022-11-20T13:31:47;94128.78;;;15.07;83.36
6435;BME280;3250;42.694;23.278;2022-11-20T13:34:23;94128.53;;;15.09;84.27
6435;BME280;3250;42.694;23.278;2022-11-20T13:36:57;94120.56;;;15.09;84.89
6435;BME280;3250;42.694;23.278;2022-11-20T13:39:30;94123.22;;;15.04;85.56
6435;BME280;3250;42.694;23.278;2022-11-20T13:41:58;94120.28;;;15.05;85.62
6435;BME280;3250;42.694;23.278;2022-11-20T13:47:27;94119.13;;;14.91;85.96
6435;BME280;3250;42.694;23.278;2022-11-20T13:49:54;94140.59;;;14.90;86.64
6435;BME280;3250;42.694;23.278;2022-11-20T14:00:43;94151.38;;;14.46;89.08
6435;BME280;3250;42.694;23.278;2022-11-20T14:03:17;94152.41;;;14.40;90.35
6435;BME280;3250;42.694;23.278;2022-11-20T14:05:55;94155.50;;;14.37;90.18
6435;BME280;3250;42.694;23.278;2022-11-20T14:08:38;94161.84;;;14.36;90.04
6435;BME280;3250;42.694;23.278;2022-11-20T14:13:37;94156.69;;;14.46;88.36
6435;BME280;3250;42.694;23.278;2022-11-20T14:16:02;94160.38;;;14.45;88.88
6435;BME280;3250;42.694;23.278;2022-11-20T14:18:28;94166.63;;;14.61;88.78
6435;BME280;3250;42.694;23.278;2022-11-20T14:20:54;94129.44;;;14.51;88.97
6435;BME280;3250;42.694;23.278;2022-11-20T14:23:27;94155.47;;;14.59;89.78
6435;BME280;3250;42.694;23.278;2022-11-20T14:25:53;94122.38;;;14.61;90.18
6435;BME280;3250;42.694;23.278;2022-11-20T14:28:30;94139.22;;;14.82;89.33
6435;BME280;3250;42.694;23.278;2022-11-20T14:30:56;94152.13;;;14.73;87.71
6435;BME280;3250;42.694;23.278;2022-11-20T14:33:23;94151.53;;;14.61;87.60
6435;BME280;3250;42.694;23.278;2022-11-20T14:35:57;94175.72;;;14.75;87.62
6435;BME280;3250;42.694;23.278;2022-11-20T14:38:28;94171.22;;;14.76;87.47
6435;BME280;3250;42.694;23.278;2022-11-20T14:40:54;94165.69;;;14.77;86.93
6435;BME280;3250;42.694;23.278;2022-11-20T14:43:25;94159.59;;;14.77;86.09